sensor_id;sensor_type;location;lat;lon;timestamp;pressure;altitude;pressure_sealevel;temperature;humidity
60417;BME280;46263;44.726;10.396;2024-02-23T00:01:36;99015.16;;;14.37;89.61
60417;BME280;46263;44.726;10.396;2024-02-23T00:04:02;99019.03;;;14.41;89.49
60417;BME280;46263;44.726;10.396;2024-02-23T00:06:28;99006.44;;;14.42;88.90
60417;BME280;46263;44.726;10.396;2024-02-23T00:08:54;99014.88;;;14.42;88.96
60417;BME280;46263;44.726;10.396;2024-02-23T00:11:23;99009.66;;;14.39;89.30
60417;BME280;46263;44.726;10.396;2024-02-23T00:13:49;99002.25;;;14.34;89.23
60417;BME280;46263;44.726;10.396;2024-02-23T00:16:14;99002.56;;;14.38;89.32
60417;BME280;46263;44.726;10.396;2024-02-23T00:18:39;99002.72;;;14.40;89.34
60417;BME280;46263;44.726;10.396;2024-02-23T00:21:05;98969.84;;;14.33;89.34
60417;BME280;46263;44.726;10.396;2024-02-23T00:23:30;98974.09;;;14.25;90.02
60417;BME280;46263;44.726;10.396;2024-02-23T00:25:56;98969.03;;;14.23;90.27
60417;BME280;46263;44.726;10.396;2024-02-23T00:28:21;98964.22;;;14.33;89.80
60417;BME280;46263;44.726;10.396;2024-02-23T00:30:47;98957.78;;;14.23;89.51
60417;BME280;46263;44.726;10.396;2024-02-23T00:33:13;98957.78;;;14.23;89.93
60417;BME280;46263;44.726;10.396;2024-02-23T00:35:38;98954.84;;;14.21;89.96
60417;BME280;46263;44.726;10.396;2024-02-23T00:38:04;98950.13;;;14.24;90.04
60417;BME280;46263;44.726;10.396;2024-02-23T00:40:30;98954.31;;;14.32;89.73
60417;BME280;46263;44.726;10.396;2024-02-23T00:42:55;98953.50;;;14.22;89.81
60417;BME280;46263;44.726;10.396;2024-02-23T00:45:21;98952.34;;;14.25;89.85
60417;BME280;46263;44.726;10.396;2024-02-23T00:47:47;98944.50;;;14.24;89.45
60417;BME280;46263;44.726;10.396;2024-02-23T00:50:14;98952.34;;;14.25;89.19
60417;BME280;46263;44.726;10.396;2024-02-23T00:52:39;98948.78;;;14.25;89.42
60417;BME280;46263;44.726;10.396;2024-02-23T00:55:06;98947.31;;;14.24;89.32
60417;BME280;46263;44.726;10.396;2024-02-23T00:57:34;98929.69;;;14.23;89.25
60417;BME280;46263;44.726;10.396;2024-02-23T01:00:01;98931.78;;;14.06;89.83
60417;BME280;46263;44.726;10.396;2024-02-23T01:02:28;98910.38;;;14.10;90.13
60417;BME280;46263;44.726;10.396;2024-02-23T01:04:54;98902.88;;;14.13;90.07
60417;BME280;46263;44.726;10.396;2024-02-23T01:07:22;98906.47;;;14.23;89.00
60417;BME280;46263;44.726;10.396;2024-02-23T01:09:48;98904.91;;;14.29;88.68
60417;BME280;46263;44.726;10.396;2024-02-23T01:12:13;98891.84;;;14.24;88.43
60417;BME280;46263;44.726;10.396;2024-02-23T01:14:39;98891.97;;;14.17;89.02
60417;BME280;46263;44.726;10.396;2024-02-23T01:17:04;98880.34;;;14.30;88.32
60417;BME280;46263;44.726;10.396;2024-02-23T01:19:30;98875.03;;;14.34;87.46
60417;BME280;46263;44.726;10.396;2024-02-23T01:21:55;98868.50;;;14.31;85.65
60417;BME280;46263;44.726;10.396;2024-02-23T01:24:25;98863.50;;;14.39;85.86
60417;BME280;46263;44.726;10.396;2024-02-23T01:26:53;98865.75;;;14.40;86.35
60417;BME280;46263;44.726;10.396;2024-02-23T01:29:20;98864.81;;;14.38;86.47
60417;BME280;46263;44.726;10.396;2024-02-23T01:31:46;98858.47;;;14.37;86.05
60417;BME280;46263;44.726;10.396;2024-02-23T01:34:11;98853.00;;;14.39;85.87
60417;BME280;46263;44.726;10.396;2024-02-23T01:36:36;98855.38;;;14.43;85.71
60417;BME280;46263;44.726;10.396;2024-02-23T01:39:04;98852.16;;;14.46;85.75
60417;BME280;46263;44.726;10.396;2024-02-23T01:41:29;98840.31;;;14.48;86.09
60417;BME280;46263;44.726;10.396;2024-02-23T01:43:55;98850.22;;;14.49;86.18
60417;BME280;46263;44.726;10.396;2024-02-23T01:46:21;98838.28;;;14.22;87.64
60417;BME280;46263;44.726;10.396;2024-02-23T01:48:46;98830.53;;;13.87;87.87
60417;BME280;46263;44.726;10.396;2024-02-23T01:51:12;98834.06;;;14.04;87.90
60417;BME280;46263;44.726;10.396;2024-02-23T01:53:38;98844.31;;;14.19;87.71
60417;BME280;46263;44.726;10.396;2024-02-23T01:56:04;98817.28;;;14.23;87.11
60417;BME280;46263;44.726;10.396;2024-02-23T01:58:33;98811.66;;;14.23;87.08
60417;BME280;46263;44.726;10.396;2024-02-23T02:01:00;98797.47;;;14.21;87.54
60417;BME280;46263;44.726;10.396;2024-02-23T02:03:26;98800.31;;;14.31;87.39
60417;BME280;46263;44.726;10.396;2024-02-23T02:05:52;98800.59;;;14.34;87.39
60417;BME280;46263;44.726;10.396;2024-02-23T02:08:19;98781.38;;;14.31;87.58
60417;BME280;46263;44.726;10.396;2024-02-23T02:10:45;98778.56;;;14.31;87.12
60417;BME280;46263;44.726;10.396;2024-02-23T02:13:11;98765.72;;;14.37;87.13
60417;BME280;46263;44.726;10.396;2024-02-23T02:15:37;98752.69;;;14.33;86.43
60417;BME280;46263;44.726;10.396;2024-02-23T02:18:03;98747.38;;;14.36;84.91
60417;BME280;46263;44.726;10.396;2024-02-23T02:20:33;98753.31;;;14.40;83.88
60417;BME280;46263;44.726;10.396;2024-02-23T02:22:59;98753.75;;;14.37;84.39
60417;BME280;46263;44.726;10.396;2024-02-23T02:25:24;98744.28;;;14.42;84.48
60417;BME280;46263;44.726;10.396;2024-02-23T02:27:49;98742.78;;;14.32;85.42
60417;BME280;46263;44.726;10.396;2024-02-23T02:30:15;98730.03;;;14.21;85.22
60417;BME280;46263;44.726;10.396;2024-02-23T02:32:41;98739.66;;;14.28;84.50
60417;BME280;46263;44.726;10.396;2024-02-23T02:35:06;98742.72;;;14.13;84.14
60417;BME280;46263;44.726;10.396;2024-02-23T02:37:32;98752.91;;;13.72;87.55
60417;BME280;46263;44.726;10.396;2024-02-23T02:39:57;98734.97;;;13.42;90.50
60417;BME280;46263;44.726;10.396;2024-02-23T02:42:23;98728.47;;;13.65;89.52
60417;BME280;46263;44.726;10.396;2024-02-23T02:44:48;98718.56;;;13.64;88.80
60417;BME280;46263;44.726;10.396;2024-02-23T02:47:14;98707.50;;;13.40;90.80
60417;BME280;46263;44.726;10.396;2024-02-23T02:49:40;98690.41;;;13.46;90.14
60417;BME280;46263;44.726;10.396;2024-02-23T02:52:05;98689.56;;;13.52;89.04
60417;BME280;46263;44.726;10.396;2024-02-23T02:54:31;98698.19;;;13.73;88.35
60417;BME280;46263;44.726;10.396;2024-02-23T02:56:56;98695.00;;;13.86;87.75
60417;BME280;46263;44.726;10.396;2024-02-23T02:59:23;98681.31;;;14.00;86.84
60417;BME280;46263;44.726;10.396;2024-02-23T03:01:48;98678.03;;;13.94;87.08
60417;BME280;46263;44.726;10.396;2024-02-23T03:04:14;98677.94;;;13.65;88.46
60417;BME280;46263;44.726;10.396;2024-02-23T03:06:39;98665.00;;;13.44;90.06
60417;BME280;46263;44.726;10.396;2024-02-23T03:09:05;98660.00;;;13.52;89.09
60417;BME280;46263;44.726;10.396;2024-02-23T03:11:32;98657.13;;;13.68;88.16
60417;BME280;46263;44.726;10.396;2024-02-23T03:13:57;98649.16;;;13.74;87.99
60417;BME280;46263;44.726;10.396;2024-02-23T03:16:23;98638.84;;;13.86;87.30
60417;BME280;46263;44.726;10.396;2024-02-23T03:18:51;98641.81;;;13.88;86.42
60417;BME280;46263;44.726;10.396;2024-02-23T03:21:17;98636.94;;;13.89;86.52
60417;BME280;46263;44.726;10.396;2024-02-23T03:23:42;98632.19;;;13.91;85.86
60417;BME280;46263;44.726;10.396;2024-02-23T03:26:08;98622.88;;;13.98;85.44
60417;BME280;46263;44.726;10.396;2024-02-23T03:28:33;98614.63;;;14.00;85.08
60417;BME280;46263;44.726;10.396;2024-02-23T03:31:02;98603.38;;;14.00;84.87
60417;BME280;46263;44.726;10.396;2024-02-23T03:33:27;98605.19;;;14.05;84.60
60417;BME280;46263;44.726;10.396;2024-02-23T03:35:53;98593.31;;;13.97;84.70
60417;BME280;46263;44.726;10.396;2024-02-23T03:38:19;98593.94;;;14.05;84.33
60417;BME280;46263;44.726;10.396;2024-02-23T03:40:44;98581.97;;;14.14;82.27
60417;BME280;46263;44.726;10.396;2024-02-23T03:43:10;98590.00;;;14.27;80.59
60417;BME280;46263;44.726;10.396;2024-02-23T03:45:35;98597.06;;;14.37;79.56
60417;BME280;46263;44.726;10.396;2024-02-23T03:48:03;98588.97;;;14.41;78.00
60417;BME280;46263;44.726;10.396;2024-02-23T03:50:29;98583.47;;;14.53;76.68
60417;BME280;46263;44.726;10.396;2024-02-23T03:52:55;98583.91;;;14.59;75.47
60417;BME280;46263;44.726;10.396;2024-02-23T03:55:20;98582.41;;;14.58;76.46
60417;BME280;46263;44.726;10.396;2024-02-23T03:57:47;98603.44;;;14.19;80.51
60417;BME280;46263;44.726;10.396;2024-02-23T04:00:13;98578.41;;;13.31;86.36
60417;BME280;46263;44.726;10.396;2024-02-23T04:02:38;98565.94;;;13.60;85.46
60417;BME280;46263;44.726;10.396;2024-02-23T04:05:05;98565.94;;;13.69;84.53
60417;BME280;46263;44.726;10.396;2024-02-23T04:07:31;98556.09;;;13.87;83.66
60417;BME280;46263;44.726;10.396;2024-02-23T04:09:56;98557.56;;;13.88;81.91
60417;BME280;46263;44.726;10.396;2024-02-23T04:12:22;98555.53;;;13.44;85.07
60417;BME280;46263;44.726;10.396;2024-02-23T04:14:47;98561.50;;;13.57;84.56
60417;BME280;46263;44.726;10.396;2024-02-23T04:17:13;98556.66;;;13.76;83.78
60417;BME280;46263;44.726;10.396;2024-02-23T04:19:43;98555.47;;;13.79;83.03
60417;BME280;46263;44.726;10.396;2024-02-23T04:22:09;98558.13;;;13.87;83.01
60417;BME280;46263;44.726;10.396;2024-02-23T04:24:39;98544.56;;;13.93;82.10
60417;BME280;46263;44.726;10.396;2024-02-23T04:27:05;98547.50;;;13.76;81.31
60417;BME280;46263;44.726;10.396;2024-02-23T04:29:31;98549.13;;;13.98;80.69
60417;BME280;46263;44.726;10.396;2024-02-23T04:32:01;98531.84;;;14.01;81.34
60417;BME280;46263;44.726;10.396;2024-02-23T04:34:27;98518.56;;;14.11;81.09
60417;BME280;46263;44.726;10.396;2024-02-23T04:36:53;98519.56;;;14.06;80.19
60417;BME280;46263;44.726;10.396;2024-02-23T04:39:18;98502.16;;;14.17;79.61
60417;BME280;46263;44.726;10.396;2024-02-23T04:41:44;98520.63;;;14.11;80.90
60417;BME280;46263;44.726;10.396;2024-02-23T04:44:09;98514.84;;;14.09;80.69
60417;BME280;46263;44.726;10.396;2024-02-23T04:46:35;98505.22;;;14.02;80.46
60417;BME280;46263;44.726;10.396;2024-02-23T04:49:01;98499.31;;;13.98;81.58
60417;BME280;46263;44.726;10.396;2024-02-23T04:51:27;98502.69;;;14.06;80.78
60417;BME280;46263;44.726;10.396;2024-02-23T04:53:53;98499.03;;;13.94;81.01
60417;BME280;46263;44.726;10.396;2024-02-23T04:56:18;98475.97;;;14.05;81.24
60417;BME280;46263;44.726;10.396;2024-02-23T04:58:44;98469.16;;;14.08;81.18
60417;BME280;46263;44.726;10.396;2024-02-23T05:01:09;98457.78;;;14.16;80.71
60417;BME280;46263;44.726;10.396;2024-02-23T05:03:36;98468.59;;;14.19;80.99
60417;BME280;46263;44.726;10.396;2024-02-23T05:06:02;98458.66;;;14.18;79.98
60417;BME280;46263;44.726;10.396;2024-02-23T05:08:28;98471.38;;;14.29;79.26
60417;BME280;46263;44.726;10.396;2024-02-23T05:10:55;98485.84;;;14.34;78.30
60417;BME280;46263;44.726;10.396;2024-02-23T05:13:21;98464.09;;;14.35;76.54
60417;BME280;46263;44.726;10.396;2024-02-23T05:15:46;98471.91;;;14.46;76.95
60417;BME280;46263;44.726;10.396;2024-02-23T05:18:12;98471.19;;;14.45;77.46
60417;BME280;46263;44.726;10.396;2024-02-23T05:20:37;98461.69;;;14.60;77.03
60417;BME280;46263;44.726;10.396;2024-02-23T05:23:03;98467.84;;;14.68;75.78
60417;BME280;46263;44.726;10.396;2024-02-23T05:25:29;98476.41;;;14.79;75.49
60417;BME280;46263;44.726;10.396;2024-02-23T05:27:54;98462.78;;;14.76;74.35
60417;BME280;46263;44.726;10.396;2024-02-23T05:30:20;98464.22;;;14.86;73.61
60417;BME280;46263;44.726;10.396;2024-02-23T05:32:45;98463.91;;;14.92;73.16
60417;BME280;46263;44.726;10.396;2024-02-23T05:35:12;98471.84;;;15.05;72.87
60417;BME280;46263;44.726;10.396;2024-02-23T05:37:37;98462.00;;;15.15;73.35
60417;BME280;46263;44.726;10.396;2024-02-23T05:40:03;98464.34;;;15.18;73.20
60417;BME280;46263;44.726;10.396;2024-02-23T05:42:32;98453.38;;;15.22;72.91
60417;BME280;46263;44.726;10.396;2024-02-23T05:44:58;98451.41;;;15.34;73.06
60417;BME280;46263;44.726;10.396;2024-02-23T05:47:23;98450.06;;;15.35;73.08
60417;BME280;46263;44.726;10.396;2024-02-23T05:49:50;98447.59;;;15.51;72.54
60417;BME280;46263;44.726;10.396;2024-02-23T05:52:15;98460.72;;;15.58;72.12
60417;BME280;46263;44.726;10.396;2024-02-23T05:54:41;98454.94;;;15.56;71.81
60417;BME280;46263;44.726;10.396;2024-02-23T05:57:06;98463.06;;;15.61;72.06
60417;BME280;46263;44.726;10.396;2024-02-23T05:59:32;98472.66;;;14.86;75.04
60417;BME280;46263;44.726;10.396;2024-02-23T06:01:57;98481.00;;;14.75;76.40
60417;BME280;46263;44.726;10.396;2024-02-23T06:04:23;98494.28;;;14.44;77.21
60417;BME280;46263;44.726;10.396;2024-02-23T06:06:49;98489.13;;;14.22;79.43
60417;BME280;46263;44.726;10.396;2024-02-23T06:09:14;98501.41;;;14.26;80.00
60417;BME280;46263;44.726;10.396;2024-02-23T06:11:41;98500.97;;;14.11;81.23
60417;BME280;46263;44.726;10.396;2024-02-23T06:14:07;98513.34;;;13.89;82.61
60417;BME280;46263;44.726;10.396;2024-02-23T06:16:33;98505.19;;;13.46;86.68
60417;BME280;46263;44.726;10.396;2024-02-23T06:18:58;98505.47;;;13.31;88.79
60417;BME280;46263;44.726;10.396;2024-02-23T06:21:24;98513.44;;;13.34;89.89
60417;BME280;46263;44.726;10.396;2024-02-23T06:23:49;98513.38;;;13.15;91.78
60417;BME280;46263;44.726;10.396;2024-02-23T06:26:15;98513.22;;;13.13;92.57
60417;BME280;46263;44.726;10.396;2024-02-23T06:28:40;98511.16;;;13.04;93.51
60417;BME280;46263;44.726;10.396;2024-02-23T06:31:09;98505.31;;;12.93;94.79
60417;BME280;46263;44.726;10.396;2024-02-23T06:33:35;98501.72;;;13.19;93.50
60417;BME280;46263;44.726;10.396;2024-02-23T06:36:01;98508.41;;;13.33;92.62
60417;BME280;46263;44.726;10.396;2024-02-23T06:38:28;98505.28;;;13.19;93.47
60417;BME280;46263;44.726;10.396;2024-02-23T06:40:54;98496.34;;;12.94;95.30
60417;BME280;46263;44.726;10.396;2024-02-23T06:43:20;98497.06;;;12.95;95.71
60417;BME280;46263;44.726;10.396;2024-02-23T06:45:46;98495.28;;;12.90;96.48
60417;BME280;46263;44.726;10.396;2024-02-23T06:48:11;98506.66;;;12.92;96.62
60417;BME280;46263;44.726;10.396;2024-02-23T06:50:37;98515.56;;;13.07;97.01
60417;BME280;46263;44.726;10.396;2024-02-23T06:53:02;98520.06;;;13.29;96.25
60417;BME280;46263;44.726;10.396;2024-02-23T06:55:28;98526.06;;;13.07;95.96
60417;BME280;46263;44.726;10.396;2024-02-23T06:57:54;98517.47;;;13.05;98.36
60417;BME280;46263;44.726;10.396;2024-02-23T07:00:22;98522.06;;;12.83;100.00
60417;BME280;46263;44.726;10.396;2024-02-23T07:02:48;98545.84;;;12.56;100.00
60417;BME280;46263;44.726;10.396;2024-02-23T07:05:13;98548.94;;;12.60;100.00
60417;BME280;46263;44.726;10.396;2024-02-23T07:07:39;98552.16;;;12.57;100.00
60417;BME280;46263;44.726;10.396;2024-02-23T07:10:06;98545.72;;;12.37;100.00
60417;BME280;46263;44.726;10.396;2024-02-23T07:12:31;98543.84;;;12.66;100.00
60417;BME280;46263;44.726;10.396;2024-02-23T07:14:57;98561.00;;;12.53;100.00
60417;BME280;46263;44.726;10.396;2024-02-23T07:17:23;98569.31;;;12.61;100.00
60417;BME280;46263;44.726;10.396;2024-02-23T07:19:48;98576.28;;;12.69;100.00
60417;BME280;46263;44.726;10.396;2024-02-23T07:22:16;98580.53;;;12.61;100.00
60417;BME280;46263;44.726;10.396;2024-02-23T07:24:43;98583.34;;;12.44;100.00
60417;BME280;46263;44.726;10.396;2024-02-23T07:27:09;98599.34;;;12.77;100.00
60417;BME280;46263;44.726;10.396;2024-02-23T07:29:34;98612.94;;;12.80;100.00
60417;BME280;46263;44.726;10.396;2024-02-23T07:32:00;98600.84;;;12.78;100.00
60417;BME280;46263;44.726;10.396;2024-02-23T07:34:25;98595.25;;;12.61;100.00
60417;BME280;46263;44.726;10.396;2024-02-23T07:36:54;98602.34;;;12.62;100.00
60417;BME280;46263;44.726;10.396;2024-02-23T07:39:20;98611.59;;;12.55;100.00
60417;BME280;46263;44.726;10.396;2024-02-23T07:41:46;98615.19;;;12.82;100.00
60417;BME280;46263;44.726;10.396;2024-02-23T07:44:11;98619.66;;;12.68;100.00
60417;BME280;46263;44.726;10.396;2024-02-23T07:46:37;98626.31;;;12.89;100.00
60417;BME280;46263;44.726;10.396;2024-02-23T07:49:04;98624.16;;;12.97;100.00
60417;BME280;46263;44.726;10.396;2024-02-23T07:51:29;98647.94;;;12.79;100.00
60417;BME280;46263;44.726;10.396;2024-02-23T07:53:55;98638.78;;;12.62;100.00
60417;BME280;46263;44.726;10.396;2024-02-23T07:56:20;98637.97;;;12.52;100.00
60417;BME280;46263;44.726;10.396;2024-02-23T07:58:46;98640.78;;;12.52;100.00
60417;BME280;46263;44.726;10.396;2024-02-23T08:01:13;98640.22;;;12.54;100.00
60417;BME280;46263;44.726;10.396;2024-02-23T08:03:39;98635.03;;;12.50;100.00
60417;BME280;46263;44.726;10.396;2024-02-23T08:06:05;98632.53;;;12.54;100.00
60417;BME280;46263;44.726;10.396;2024-02-23T08:08:31;98637.91;;;12.43;100.00
60417;BME280;46263;44.726;10.396;2024-02-23T08:11:00;98636.53;;;12.34;100.00
60417;BME280;46263;44.726;10.396;2024-02-23T08:13:26;98632.66;;;12.30;100.00
60417;BME280;46263;44.726;10.396;2024-02-23T08:15:51;98633.53;;;12.32;100.00
60417;BME280;46263;44.726;10.396;2024-02-23T08:18:17;98632.69;;;12.56;100.00
60417;BME280;46263;44.726;10.396;2024-02-23T08:20:42;98636.34;;;12.49;100.00
60417;BME280;46263;44.726;10.396;2024-02-23T08:23:08;98642.59;;;12.40;100.00
60417;BME280;46263;44.726;10.396;2024-02-23T08:25:35;98645.88;;;12.63;100.00
60417;BME280;46263;44.726;10.396;2024-02-23T08:28:01;98636.53;;;12.34;100.00
60417;BME280;46263;44.726;10.396;2024-02-23T08:30:27;98636.00;;;12.45;100.00
60417;BME280;46263;44.726;10.396;2024-02-23T08:32:52;98632.13;;;12.41;100.00
60417;BME280;46263;44.726;10.396;2024-02-23T08:35:18;98638.97;;;12.30;100.00
60417;BME280;46263;44.726;10.396;2024-02-23T08:37:44;98650.84;;;12.55;100.00
60417;BME280;46263;44.726;10.396;2024-02-23T08:40:09;98639.97;;;12.42;100.00
60417;BME280;46263;44.726;10.396;2024-02-23T08:42:35;98644.75;;;12.32;100.00
60417;BME280;46263;44.726;10.396;2024-02-23T08:45:00;98649.34;;;12.20;100.00
60417;BME280;46263;44.726;10.396;2024-02-23T08:47:26;98639.97;;;12.25;100.00
60417;BME280;46263;44.726;10.396;2024-02-23T08:49:57;98645.72;;;12.44;100.00
60417;BME280;46263;44.726;10.396;2024-02-23T08:52:23;98644.41;;;12.62;100.00
60417;BME280;46263;44.726;10.396;2024-02-23T08:54:48;98657.41;;;12.84;100.00
60417;BME280;46263;44.726;10.396;2024-02-23T08:57:14;98657.41;;;12.84;100.00
60417;BME280;46263;44.726;10.396;2024-02-23T08:59:42;98661.03;;;12.77;100.00
60417;BME280;46263;44.726;10.396;2024-02-23T09:02:08;98655.47;;;12.43;100.00
60417;BME280;46263;44.726;10.396;2024-02-23T09:04:35;98651.31;;;12.44;100.00
60417;BME280;46263;44.726;10.396;2024-02-23T09:07:01;98659.00;;;12.27;100.00
60417;BME280;46263;44.726;10.396;2024-02-23T09:09:27;98658.50;;;12.38;100.00
60417;BME280;46263;44.726;10.396;2024-02-23T09:11:52;98677.44;;;12.13;100.00
60417;BME280;46263;44.726;10.396;2024-02-23T09:14:18;98687.34;;;12.14;100.00
60417;BME280;46263;44.726;10.396;2024-02-23T09:16:43;98677.31;;;12.03;100.00
60417;BME280;46263;44.726;10.396;2024-02-23T09:19:11;98668.47;;;12.14;100.00
60417;BME280;46263;44.726;10.396;2024-02-23T09:21:37;98676.22;;;12.23;100.00
60417;BME280;46263;44.726;10.396;2024-02-23T09:24:03;98684.19;;;12.10;100.00
60417;BME280;46263;44.726;10.396;2024-02-23T09:26:29;98699.22;;;11.97;100.00
60417;BME280;46263;44.726;10.396;2024-02-23T09:28:54;98703.56;;;12.15;100.00
60417;BME280;46263;44.726;10.396;2024-02-23T09:31:20;98708.00;;;12.18;100.00
60417;BME280;46263;44.726;10.396;2024-02-23T09:33:45;98699.94;;;12.39;100.00
60417;BME280;46263;44.726;10.396;2024-02-23T09:36:12;98717.16;;;12.36;100.00
60417;BME280;46263;44.726;10.396;2024-02-23T09:38:38;98723.09;;;12.40;100.00
60417;BME280;46263;44.726;10.396;2024-02-23T09:41:04;98718.50;;;12.52;100.00
60417;BME280;46263;44.726;10.396;2024-02-23T09:43:29;98709.50;;;12.36;100.00
60417;BME280;46263;44.726;10.396;2024-02-23T09:45:57;98701.44;;;12.40;100.00
60417;BME280;46263;44.726;10.396;2024-02-23T09:48:23;98705.31;;;12.28;100.00
60417;BME280;46263;44.726;10.396;2024-02-23T09:50:50;98702.66;;;12.30;100.00
60417;BME280;46263;44.726;10.396;2024-02-23T09:53:18;98703.16;;;12.36;100.00
60417;BME280;46263;44.726;10.396;2024-02-23T09:55:44;98693.50;;;12.29;100.00
60417;BME280;46263;44.726;10.396;2024-02-23T09:58:12;98696.00;;;12.25;100.00
60417;BME280;46263;44.726;10.396;2024-02-23T10:00:41;98690.06;;;12.38;100.00
60417;BME280;46263;44.726;10.396;2024-02-23T10:03:06;98686.25;;;12.60;100.00
60417;BME280;46263;44.726;10.396;2024-02-23T10:05:32;98693.34;;;12.61;100.00
60417;BME280;46263;44.726;10.396;2024-02-23T10:07:58;98711.91;;;12.73;100.00
60417;BME280;46263;44.726;10.396;2024-02-23T10:10:32;98705.75;;;12.92;100.00
60417;BME280;46263;44.726;10.396;2024-02-23T10:12:58;98706.69;;;12.70;100.00
60417;BME280;46263;44.726;10.396;2024-02-23T10:15:24;98708.53;;;12.75;100.00
60417;BME280;46263;44.726;10.396;2024-02-23T10:17:49;98715.88;;;12.87;100.00
60417;BME280;46263;44.726;10.396;2024-02-23T10:20:15;98718.06;;;13.23;100.00
60417;BME280;46263;44.726;10.396;2024-02-23T10:22:41;98726.44;;;13.40;100.00
60417;BME280;46263;44.726;10.396;2024-02-23T10:25:06;98726.50;;;13.58;100.00
60417;BME280;46263;44.726;10.396;2024-02-23T10:27:32;98712.41;;;13.75;100.00
60417;BME280;46263;44.726;10.396;2024-02-23T10:29:58;98709.28;;;13.71;100.00
60417;BME280;46263;44.726;10.396;2024-02-23T10:32:25;98710.47;;;13.78;99.89
60417;BME280;46263;44.726;10.396;2024-02-23T10:34:55;98702.56;;;13.57;99.01
60417;BME280;46263;44.726;10.396;2024-02-23T10:37:25;98707.03;;;13.60;99.87
60417;BME280;46263;44.726;10.396;2024-02-23T10:39:53;98708.72;;;13.47;100.00
60417;BME280;46263;44.726;10.396;2024-02-23T10:42:23;98710.41;;;13.59;100.00
60417;BME280;46263;44.726;10.396;2024-02-23T10:44:50;98706.50;;;13.71;99.86
60417;BME280;46263;44.726;10.396;2024-02-23T10:47:16;98694.19;;;13.67;99.38
60417;BME280;46263;44.726;10.396;2024-02-23T10:49:44;98705.03;;;13.80;100.00
60417;BME280;46263;44.726;10.396;2024-02-23T10:52:11;98697.53;;;13.92;99.70
60417;BME280;46263;44.726;10.396;2024-02-23T10:54:39;98686.94;;;14.00;99.53
60417;BME280;46263;44.726;10.396;2024-02-23T10:57:08;98684.50;;;13.87;98.13
60417;BME280;46263;44.726;10.396;2024-02-23T10:59:33;98694.75;;;14.01;98.58
60417;BME280;46263;44.726;10.396;2024-02-23T11:01:59;98689.69;;;13.90;97.18
60417;BME280;46263;44.726;10.396;2024-02-23T11:04:26;98686.59;;;13.86;98.98
60417;BME280;46263;44.726;10.396;2024-02-23T11:06:54;98689.84;;;13.83;99.12
60417;BME280;46263;44.726;10.396;2024-02-23T11:09:21;98693.13;;;13.98;97.67
60417;BME280;46263;44.726;10.396;2024-02-23T11:11:56;98693.72;;;13.97;97.12
60417;BME280;46263;44.726;10.396;2024-02-23T11:14:32;98718.97;;;13.87;97.19
60417;BME280;46263;44.726;10.396;2024-02-23T11:16:58;98710.28;;;14.02;97.38
60417;BME280;46263;44.726;10.396;2024-02-23T11:19:35;98705.59;;;14.14;97.18
60417;BME280;46263;44.726;10.396;2024-02-23T11:22:03;98709.50;;;14.28;97.84
60417;BME280;46263;44.726;10.396;2024-02-23T11:24:30;98711.44;;;14.35;96.21
60417;BME280;46263;44.726;10.396;2024-02-23T11:26:59;98710.53;;;14.33;96.82
60417;BME280;46263;44.726;10.396;2024-02-23T11:29:33;98710.66;;;14.16;95.85
60417;BME280;46263;44.726;10.396;2024-02-23T11:32:00;98710.38;;;14.21;96.95
60417;BME280;46263;44.726;10.396;2024-02-23T11:34:30;98707.69;;;14.14;96.53
60417;BME280;46263;44.726;10.396;2024-02-23T11:36:55;98715.22;;;14.11;96.96
60417;BME280;46263;44.726;10.396;2024-02-23T11:39:22;98714.19;;;14.26;98.06
60417;BME280;46263;44.726;10.396;2024-02-23T11:41:48;98706.41;;;14.34;99.76
60417;BME280;46263;44.726;10.396;2024-02-23T11:44:15;98699.31;;;14.42;98.41
60417;BME280;46263;44.726;10.396;2024-02-23T11:46:43;98700.78;;;14.43;97.87
60417;BME280;46263;44.726;10.396;2024-02-23T11:49:08;98690.88;;;14.33;96.40
60417;BME280;46263;44.726;10.396;2024-02-23T11:51:34;98678.94;;;13.96;96.66
60417;BME280;46263;44.726;10.396;2024-02-23T11:54:00;98688.44;;;13.65;96.89
60417;BME280;46263;44.726;10.396;2024-02-23T11:56:26;98680.19;;;13.76;98.81
60417;BME280;46263;44.726;10.396;2024-02-23T11:58:53;98684.31;;;13.75;99.64
60417;BME280;46263;44.726;10.396;2024-02-23T12:01:19;98677.28;;;13.93;99.45
60417;BME280;46263;44.726;10.396;2024-02-23T12:03:44;98679.38;;;14.02;100.00
60417;BME280;46263;44.726;10.396;2024-02-23T12:06:11;98679.00;;;14.15;100.00
60417;BME280;46263;44.726;10.396;2024-02-23T12:08:37;98678.88;;;14.23;100.00
60417;BME280;46263;44.726;10.396;2024-02-23T12:11:07;98677.97;;;14.20;100.00
60417;BME280;46263;44.726;10.396;2024-02-23T12:13:34;98670.72;;;14.27;99.12
60417;BME280;46263;44.726;10.396;2024-02-23T12:16:00;98685.69;;;14.29;98.82
60417;BME280;46263;44.726;10.396;2024-02-23T12:18:26;98680.78;;;14.30;98.60
60417;BME280;46263;44.726;10.396;2024-02-23T12:20:52;98666.59;;;14.28;98.06
60417;BME280;46263;44.726;10.396;2024-02-23T12:23:17;98673.56;;;14.36;98.51
60417;BME280;46263;44.726;10.396;2024-02-23T12:26:13;98671.94;;;14.33;97.35
60417;BME280;46263;44.726;10.396;2024-02-23T12:28:39;98669.88;;;14.34;96.95
60417;BME280;46263;44.726;10.396;2024-02-23T12:31:06;98667.03;;;14.24;95.65
60417;BME280;46263;44.726;10.396;2024-02-23T12:33:32;98657.28;;;14.25;95.17
60417;BME280;46263;44.726;10.396;2024-02-23T12:35:59;98651.22;;;14.19;97.08
60417;BME280;46263;44.726;10.396;2024-02-23T12:38:25;98654.47;;;14.25;97.89
60417;BME280;46263;44.726;10.396;2024-02-23T12:40:51;98659.78;;;14.21;97.50
60417;BME280;46263;44.726;10.396;2024-02-23T12:43:17;98673.84;;;14.31;97.72